Time;durP1;ratioP1;P1;durP2;ratioP2;P2;SDS_P1;SDS_P2;PMS_P1;PMS_P2;Temp;Humidity;BMP_temperature;BMP_pressure;BME280_temperature;BME280_humidity;BME280_pressure;Samples;Min_cycle;Max_cycle;Signal;HPM_P1;HPM_P2
2021/03/28 00:00:28;;;;;;;;;;;;;;;20.42;37.34;102045.84;3095576;28;115990;-59
2021/03/28 00:02:09;;;;;;;;;;;;;;;20.40;37.27;102040.50;3116400;27;114981;-58
2021/03/28 00:03:49;;;;;;;;;;;;;;;20.39;37.03;102040.81;3096597;27;115920;-59
2021/03/28 00:05:21;;;;;;;;;;;;;;;20.38;37.39;102039.97;3095267;28;115855;-59
2021/03/28 00:06:56;;;;;;;;;;;;;;;20.38;37.24;102041.94;3112708;27;113752;-59
2021/03/28 00:08:28;;;;;;;;;;;;;;;20.38;37.21;102045.59;3096418;28;114004;-58
2021/03/28 00:10:00;;;;;;;;;;;;;;;20.37;37.34;102054.28;3093504;28;114040;-59
2021/03/28 00:11:32;;;;;;;;;;;;;;;20.35;37.51;102051.72;3086779;28;114543;-59
2021/03/28 00:13:06;;;;;;;;;;;;;;;20.34;37.17;102055.69;3088342;28;114054;-59
2021/03/28 00:14:40;;;;;;;;;;;;;;;20.31;37.53;102049.78;3088232;28;114172;-59
2021/03/28 00:16:12;;;;;;;;;;;;;;;20.31;37.53;102042.19;3089386;28;113777;-59
2021/03/28 00:18:03;;;;;;;;;;;;;;;20.32;37.35;102043.03;3117627;27;114321;-58
2021/03/28 00:19:35;;;;;;;;;;;;;;;20.29;37.69;102049.19;3089278;28;113945;-59
2021/03/28 00:21:19;;;;;;;;;;;;;;;20.27;37.69;102034.59;3103173;27;113835;-59
2021/03/28 00:22:51;;;;;;;;;;;;;;;20.23;37.76;102047.50;3097105;28;115375;-59
2021/03/28 00:24:32;;;;;;;;;;;;;;;20.19;37.49;102041.59;3088943;28;114050;-59
2021/03/28 00:26:18;;;;;;;;;;;;;;;20.19;37.53;102052.81;3088579;28;113810;-59
2021/03/28 00:27:51;;;;;;;;;;;;;;;20.18;37.89;102050.28;3111054;27;113790;-59
2021/03/28 00:29:23;;;;;;;;;;;;;;;20.17;37.57;102051.44;3097828;28;113969;-59
2021/03/28 00:31:08;;;;;;;;;;;;;;;20.14;37.88;102050.00;3087178;28;115908;-59
2021/03/28 00:32:44;;;;;;;;;;;;;;;20.15;37.69;102045.25;3112760;27;115382;-58
2021/03/28 00:34:18;;;;;;;;;;;;;;;20.14;37.52;102049.16;3101221;28;115328;-59
2021/03/28 00:35:55;;;;;;;;;;;;;;;20.13;37.50;102053.09;3087228;28;115363;-59
2021/03/28 00:37:27;;;;;;;;;;;;;;;20.08;37.73;102045.50;3111562;27;115324;-58
2021/03/28 00:38:59;;;;;;;;;;;;;;;20.10;37.79;102053.66;3091340;28;113845;-59
2021/03/28 00:40:31;;;;;;;;;;;;;;;20.07;37.77;102046.66;3088442;28;115108;-59
2021/03/28 00:42:05;;;;;;;;;;;;;;;20.08;37.47;102050.31;3089210;28;113765;-58
2021/03/28 00:43:41;;;;;;;;;;;;;;;20.05;38.02;102040.47;3110642;27;115342;-59
2021/03/28 00:45:22;;;;;;;;;;;;;;;20.05;37.87;102042.44;3093609;28;115036;-58
2021/03/28 00:46:57;;;;;;;;;;;;;;;20.04;37.79;102043.53;3089322;28;117510;-58
2021/03/28 00:48:29;;;;;;;;;;;;;;;20.02;38.11;102043.00;3109858;27;115666;-58
2021/03/28 00:50:07;;;;;;;;;;;;;;;20.02;38.00;102045.78;3093666;28;114503;-58
2021/03/28 00:51:44;;;;;;;;;;;;;;;19.99;38.12;102045.22;3110027;28;115705;-58
2021/03/28 00:53:30;;;;;;;;;;;;;;;19.98;38.14;102028.69;3086761;28;115950;-59
2021/03/28 00:55:11;;;;;;;;;;;;;;;19.95;38.07;102029.22;3108273;27;116280;-59
2021/03/28 00:56:43;;;;;;;;;;;;;;;19.95;38.00;102029.22;3101905;27;115848;-59
2021/03/28 00:58:19;;;;;;;;;;;;;;;19.94;38.07;102021.94;3087399;28;115804;-59
2021/03/28 00:59:53;;;;;;;;;;;;;;;19.94;38.25;102038.78;3111557;27;115731;-59
2021/03/28 01:01:25;;;;;;;;;;;;;;;19.91;38.10;102023.34;3102787;27;114730;-59
2021/03/28 01:03:03;;;;;;;;;;;;;;;19.90;38.27;102035.66;3088891;28;116226;-59
2021/03/28 01:04:44;;;;;;;;;;;;;;;19.90;37.98;102026.41;3085195;28;116159;-59
2021/03/28 01:06:17;;;;;;;;;;;;;;;19.87;38.45;102030.63;3082163;28;115527;-59
2021/03/28 01:07:54;;;;;;;;;;;;;;;19.87;38.28;102030.63;3115807;27;116454;-59
2021/03/28 01:09:39;;;;;;;;;;;;;;;19.86;38.31;102026.13;3101024;27;114841;-59
2021/03/28 01:11:14;;;;;;;;;;;;;;;19.88;38.10;102021.09;3101294;28;116415;-58
2021/03/28 01:12:55;;;;;;;;;;;;;;;19.85;38.52;102021.63;3091002;28;115798;-59
2021/03/28 01:14:35;;;;;;;;;;;;;;;19.84;38.50;102014.34;3089144;28;115840;-59
2021/03/28 01:16:16;;;;;;;;;;;;;;;19.82;38.48;102018.53;3087623;28;113992;-58
2021/03/28 01:17:50;;;;;;;;;;;;;;;19.81;38.63;102019.66;3086367;28;113958;-59
2021/03/28 01:19:31;;;;;;;;;;;;;;;19.82;38.66;102008.16;3110633;27;114284;-59
2021/03/28 01:21:03;;;;;;;;;;;;;;;19.82;38.61;102019.38;3090408;28;113837;-59
2021/03/28 01:22:44;;;;;;;;;;;;;;;19.79;38.79;102013.50;3086353;28;113853;-59
2021/03/28 01:24:15;;;;;;;;;;;;;;;19.78;38.87;102021.06;3087593;28;114105;-59
2021/03/28 01:25:49;;;;;;;;;;;;;;;19.78;38.95;102012.66;3094833;28;115113;-59
2021/03/28 01:27:20;;;;;;;;;;;;;;;19.76;38.81;102002.84;3093577;28;113972;-59
2021/03/28 01:28:54;;;;;;;;;;;;;;;19.74;39.03;101994.72;3086324;28;114009;-58
2021/03/28 01:30:37;;;;;;;;;;;;;;;19.73;39.19;101986.56;3111378;28;114010;-58
2021/03/28 01:32:17;;;;;;;;;;;;;;;19.74;39.14;101996.66;3076209;28;114413;-58
2021/03/28 01:33:54;;;;;;;;;;;;;;;19.72;39.37;101991.31;3083351;28;113925;-58
2021/03/28 01:35:28;;;;;;;;;;;;;;;19.70;39.42;101985.16;3087530;28;114026;-58
2021/03/28 01:37:03;;;;;;;;;;;;;;;19.71;39.37;101986.00;3102143;28;114247;-57
2021/03/28 01:38:38;;;;;;;;;;;;;;;19.70;39.26;101971.16;3090380;28;115058;-57
2021/03/28 01:40:19;;;;;;;;;;;;;;;19.69;39.55;101971.41;3114090;27;115194;-58
2021/03/28 01:41:59;;;;;;;;;;;;;;;19.66;39.68;101984.03;3093489;27;115842;-57
2021/03/28 01:43:33;;;;;;;;;;;;;;;19.66;39.68;101971.97;3089796;28;115859;-57
2021/03/28 01:45:12;;;;;;;;;;;;;;;19.65;39.44;101981.50;3086904;28;115646;-57
2021/03/28 01:46:50;;;;;;;;;;;;;;;19.64;39.54;101972.25;3110596;27;115321;-58
2021/03/28 01:48:31;;;;;;;;;;;;;;;19.66;39.47;101970.03;3087286;28;114627;-57
2021/03/28 01:50:12;;;;;;;;;;;;;;;19.66;39.44;101972.81;3086368;28;115148;-57
2021/03/28 01:51:51;;;;;;;;;;;;;;;19.66;39.54;101974.78;3110447;27;115085;-58
2021/03/28 01:53:32;;;;;;;;;;;;;;;19.64;39.58;101977.00;3093536;28;115205;-58
2021/03/28 01:55:11;;;;;;;;;;;;;;;19.63;39.60;101969.72;3091912;28;115078;-58
2021/03/28 01:56:50;;;;;;;;;;;;;;;19.63;39.62;101975.31;3114055;27;115168;-58
2021/03/28 01:58:31;;;;;;;;;;;;;;;19.60;39.70;101970.28;3101018;27;115076;-58
2021/03/28 02:00:12;;;;;;;;;;;;;;;19.61;39.74;101966.38;3095791;28;115091;-57
2021/03/28 02:01:52;;;;;;;;;;;;;;;19.59;39.55;101969.44;3097502;28;115918;-57
2021/03/28 02:03:24;;;;;;;;;;;;;;;19.57;39.74;101954.88;3094905;28;114959;-59
2021/03/28 02:05:04;;;;;;;;;;;;;;;19.61;39.47;101966.38;3085598;28;115503;-57
2021/03/28 02:06:45;;;;;;;;;;;;;;;19.56;39.62;101963.53;3117065;27;115934;-57
2021/03/28 02:08:17;;;;;;;;;;;;;;;19.56;39.72;101970.00;3089013;27;115719;-57
2021/03/28 02:09:49;;;;;;;;;;;;;;;19.53;39.89;101968.56;3110518;27;115686;-58
2021/03/28 02:11:30;;;;;;;;;;;;;;;19.56;39.52;101958.78;3094907;27;115572;-58
2021/03/28 02:13:12;;;;;;;;;;;;;;;19.54;39.67;101973.06;3087748;28;116603;-58
2021/03/28 02:14:46;;;;;;;;;;;;;;;19.52;39.83;101964.09;3098079;28;115733;-58
2021/03/28 02:16:19;;;;;;;;;;;;;;;19.49;39.83;101967.44;3089105;28;115677;-58
2021/03/28 02:17:50;;;;;;;;;;;;;;;19.50;39.87;101966.34;3088906;28;115814;-58
2021/03/28 02:19:25;;;;;;;;;;;;;;;19.48;40.15;101974.19;3087141;28;115818;-58
2021/03/28 02:21:07;;;;;;;;;;;;;;;19.48;39.75;101962.13;3092836;28;115996;-58
2021/03/28 02:22:41;;;;;;;;;;;;;;;19.47;40.01;101963.25;3091927;28;115686;-58
2021/03/28 02:24:21;;;;;;;;;;;;;;;19.47;39.93;101957.63;3096234;28;114619;-57
2021/03/28 02:25:56;;;;;;;;;;;;;;;19.46;40.27;101951.19;3085335;28;114124;-58
2021/03/28 02:27:28;;;;;;;;;;;;;;;19.44;40.21;101947.81;3117381;27;113859;-57
2021/03/28 02:29:08;;;;;;;;;;;;;;;19.48;40.09;101934.09;3092104;28;114698;-58
2021/03/28 02:30:43;;;;;;;;;;;;;;;19.45;40.00;101938.28;3096379;28;114192;-58
2021/03/28 02:32:20;;;;;;;;;;;;;;;19.42;40.15;101943.59;3094736;28;113924;-58
2021/03/28 02:33:52;;;;;;;;;;;;;;;19.41;40.05;101936.28;3093146;28;114473;-58
2021/03/28 02:35:33;;;;;;;;;;;;;;;19.43;40.13;101934.06;3085667;28;113814;-57
2021/03/28 02:37:13;;;;;;;;;;;;;;;19.40;40.34;101937.41;3100186;28;114070;-58
2021/03/28 02:38:54;;;;;;;;;;;;;;;19.41;40.28;101945.53;3087671;28;113958;-58
2021/03/28 02:40:35;;;;;;;;;;;;;;;19.40;40.16;101927.03;3101003;27;114154;-57
2021/03/28 02:42:13;;;;;;;;;;;;;;;19.42;40.77;101946.38;3082608;28;114035;-58
2021/03/28 02:43:46;;;;;;;;;;;;;;;19.38;40.69;101934.03;3089356;28;113673;-58
2021/03/28 02:45:20;;;;;;;;;;;;;;;19.39;40.31;101932.94;3084897;28;113790;-58
2021/03/28 02:46:51;;;;;;;;;;;;;;;19.39;40.38;101939.38;3091477;28;114709;-58
2021/03/28 02:48:23;;;;;;;;;;;;;;;19.40;40.58;101937.41;3085592;28;114952;-58
2021/03/28 02:50:03;;;;;;;;;;;;;;;19.37;40.26;101929.56;3097465;28;115074;-58
2021/03/28 02:51:40;;;;;;;;;;;;;;;19.35;40.61;101935.44;3086321;28;115872;-58
2021/03/28 02:53:21;;;;;;;;;;;;;;;19.37;40.67;101935.16;3086410;28;115111;-58
2021/03/28 02:55:01;;;;;;;;;;;;;;;19.36;40.52;101928.72;3085883;28;115036;-58
2021/03/28 02:56:39;;;;;;;;;;;;;;;19.35;40.39;101923.41;3087056;28;115334;-58
2021/03/28 02:58:20;;;;;;;;;;;;;;;19.33;40.57;101920.88;3086246;28;115511;-58
2021/03/28 03:00:00;;;;;;;;;;;;;;;19.34;40.27;101922.56;3085777;28;116888;-58
2021/03/28 03:01:41;;;;;;;;;;;;;;;19.33;40.26;101920.03;3097689;28;117245;-58
2021/03/28 03:03:12;;;;;;;;;;;;;;;19.33;40.29;101918.06;3086931;28;115510;-58
2021/03/28 03:04:49;;;;;;;;;;;;;;;19.32;40.68;101916.38;3079058;28;115310;-58
2021/03/28 03:06:40;;;;;;;;;;;;;;;19.32;40.55;101915.53;3101506;28;115067;-58
2021/03/28 03:08:14;;;;;;;;;;;;;;;19.29;40.81;101910.47;3120361;27;115108;-58
2021/03/28 03:09:48;;;;;;;;;;;;;;;19.32;40.59;101909.91;3091806;28;115040;-58
2021/03/28 03:11:28;;;;;;;;;;;;;;;19.27;40.55;101904.31;3112096;27;114657;-58
2021/03/28 03:13:09;;;;;;;;;;;;;;;19.27;40.44;101899.53;3102077;27;114929;-58
2021/03/28 03:14:50;;;;;;;;;;;;;;;19.29;40.56;101907.69;3096802;28;115746;-58
2021/03/28 03:16:22;;;;;;;;;;;;;;;19.28;40.73;101906.00;3090227;28;114556;-58
2021/03/28 03:18:03;;;;;;;;;;;;;;;19.27;40.61;101916.34;3108422;27;114675;-58
2021/03/28 03:19:43;;;;;;;;;;;;;;;19.26;40.50;101899.84;3091150;28;116097;-58
2021/03/28 03:21:24;;;;;;;;;;;;;;;19.25;40.45;101892.56;3109258;27;116004;-58
2021/03/28 03:22:56;;;;;;;;;;;;;;;19.26;40.41;101902.66;3090580;28;114651;-58
2021/03/28 03:24:37;;;;;;;;;;;;;;;19.24;40.65;101904.88;3081808;28;115848;-58
2021/03/28 03:26:17;;;;;;;;;;;;;;;19.22;40.48;101893.09;3083941;28;115744;-58
2021/03/28 03:27:58;;;;;;;;;;;;;;;19.21;40.33;101894.22;3086390;28;115664;-58
2021/03/28 03:29:38;;;;;;;;;;;;;;;19.23;40.60;101883.56;3084633;28;114887;-57
2021/03/28 03:31:18;;;;;;;;;;;;;;;19.22;40.34;101902.31;3085545;28;116024;-57
2021/03/28 03:32:52;;;;;;;;;;;;;;;19.18;40.46;101894.75;3076978;28;114648;-58
2021/03/28 03:34:33;;;;;;;;;;;;;;;19.17;40.52;101901.50;3091841;28;114008;-58
2021/03/28 03:36:12;;;;;;;;;;;;;;;19.16;40.79;101900.66;3086582;28;114300;-57
2021/03/28 03:37:55;;;;;;;;;;;;;;;19.18;40.73;101897.56;3074722;28;113720;-57
2021/03/28 03:39:35;;;;;;;;;;;;;;;19.15;40.74;101893.38;3087470;28;113808;-57
2021/03/28 03:41:16;;;;;;;;;;;;;;;19.17;40.60;101884.69;3099356;28;114165;-57
2021/03/28 03:42:50;;;;;;;;;;;;;;;19.15;40.81;101887.75;3086623;28;113724;-57
2021/03/28 03:44:29;;;;;;;;;;;;;;;19.14;40.88;101902.88;3086290;28;113774;-57
2021/03/28 03:46:01;;;;;;;;;;;;;;;19.16;40.88;101888.59;3088430;28;114434;-57
2021/03/28 03:47:37;;;;;;;;;;;;;;;19.12;40.62;101881.88;3091610;28;113970;-57
2021/03/28 03:49:18;;;;;;;;;;;;;;;19.10;40.86;101877.38;3120829;27;113952;-57
2021/03/28 03:50:49;;;;;;;;;;;;;;;19.12;40.83;101893.09;3095226;27;113960;-57
2021/03/28 03:52:30;;;;;;;;;;;;;;;19.11;40.77;101883.81;3089406;28;113778;-57
2021/03/28 03:54:01;;;;;;;;;;;;;;;19.09;40.84;101892.50;3089820;28;114339;-57
2021/03/28 03:55:37;;;;;;;;;;;;;;;19.09;40.75;101886.91;3087237;28;113987;-58
2021/03/28 03:57:09;;;;;;;;;;;;;;;19.12;40.77;101890.28;3100304;28;113964;-58
2021/03/28 03:58:50;;;;;;;;;;;;;;;19.09;40.94;101886.06;3090505;28;115363;-57
2021/03/28 04:00:27;;;;;;;;;;;;;;;19.07;40.72;101880.75;3083350;28;115524;-57
2021/03/28 04:02:05;;;;;;;;;;;;;;;19.07;41.13;101886.34;3085411;28;114252;-57
2021/03/28 04:03:46;;;;;;;;;;;;;;;19.05;41.16;101876.53;3110827;27;115276;-58
2021/03/28 04:05:26;;;;;;;;;;;;;;;19.07;41.01;101891.09;3100556;27;115113;-58
2021/03/28 04:06:58;;;;;;;;;;;;;;;19.03;41.11;101879.59;3086570;28;115313;-57
2021/03/28 04:08:37;;;;;;;;;;;;;;;19.05;40.98;101880.16;3087042;28;114945;-57
2021/03/28 04:10:18;;;;;;;;;;;;;;;19.03;41.27;101879.59;3088381;28;115287;-58
2021/03/28 04:12:00;;;;;;;;;;;;;;;19.05;40.86;101882.13;3088061;28;114509;-58
2021/03/28 04:13:33;;;;;;;;;;;;;;;19.04;41.14;101878.47;3087935;28;115196;-57
2021/03/28 04:15:07;;;;;;;;;;;;;;;19.03;41.07;101889.97;3087065;28;115459;-58
2021/03/28 04:16:38;;;;;;;;;;;;;;;19.00;41.16;101885.75;3086821;28;115468;-58
2021/03/28 04:18:12;;;;;;;;;;;;;;;18.99;41.17;101880.41;3111538;27;115111;-58
2021/03/28 04:19:52;;;;;;;;;;;;;;;19.01;41.06;101884.63;3098541;28;115285;-58
2021/03/28 04:21:24;;;;;;;;;;;;;;;19.00;41.01;101888.56;3108460;27;115189;-58
2021/03/28 04:22:56;;;;;;;;;;;;;;;18.98;41.23;101881.56;3095205;28;115673;-58
2021/03/28 04:24:37;;;;;;;;;;;;;;;18.97;41.34;101877.91;3087314;28;115826;-58
2021/03/28 04:26:09;;;;;;;;;;;;;;;18.96;41.31;101872.56;3083179;28;115706;-58
2021/03/28 04:27:43;;;;;;;;;;;;;;;18.94;41.36;101886.03;3086969;28;114566;-58
2021/03/28 04:29:15;;;;;;;;;;;;;;;18.96;41.58;101884.63;3092685;28;114629;-58
2021/03/28 04:30:59;;;;;;;;;;;;;;;18.95;41.67;101891.34;3098036;28;115798;-58
2021/03/28 04:32:40;;;;;;;;;;;;;;;18.93;41.62;101887.13;3089022;28;115346;-58
2021/03/28 04:34:20;;;;;;;;;;;;;;;18.91;41.48;101879.00;3096427;28;115739;-58
2021/03/28 04:35:52;;;;;;;;;;;;;;;18.94;41.49;101903.63;3086145;28;114928;-58
2021/03/28 04:37:23;;;;;;;;;;;;;;;18.93;41.28;101887.13;3095053;28;115787;-58
2021/03/28 04:39:02;;;;;;;;;;;;;;;18.93;41.56;101889.94;3103976;28;114522;-58
2021/03/28 04:40:33;;;;;;;;;;;;;;;18.93;41.34;101885.19;3097460;28;114943;-58
2021/03/28 04:42:19;;;;;;;;;;;;;;;18.91;41.36;101879.00;3093921;28;115880;-58
2021/03/28 04:44:07;;;;;;;;;;;;;;;18.91;41.36;101886.56;3088119;28;113848;-58
2021/03/28 04:45:38;;;;;;;;;;;;;;;18.90;41.41;101879.25;3088626;28;113989;-57
2021/03/28 04:47:19;;;;;;;;;;;;;;;18.91;41.60;101884.59;3088701;28;113944;-57
2021/03/28 04:48:59;;;;;;;;;;;;;;;18.89;41.71;101881.25;3086894;28;113966;-57
2021/03/28 04:50:42;;;;;;;;;;;;;;;18.88;41.86;101887.97;3087746;28;113963;-57
2021/03/28 04:52:23;;;;;;;;;;;;;;;18.88;41.78;101903.91;3082492;28;114339;-58
2021/03/28 04:54:04;;;;;;;;;;;;;;;18.87;41.60;101885.41;3083160;28;113985;-58
2021/03/28 04:55:44;;;;;;;;;;;;;;;18.86;41.60;101870.56;3082931;28;114652;-58
2021/03/28 04:57:25;;;;;;;;;;;;;;;18.86;41.54;101875.34;3087895;28;113731;-58
2021/03/28 04:58:57;;;;;;;;;;;;;;;18.83;41.56;101873.94;3082040;28;114203;-57
2021/03/28 05:00:31;;;;;;;;;;;;;;;18.83;41.65;101871.13;3087795;28;113894;-57
2021/03/28 05:02:12;;;;;;;;;;;;;;;18.80;41.73;101871.69;3086171;28;114102;-57
2021/03/28 05:03:53;;;;;;;;;;;;;;;18.81;41.70;101875.31;3090528;28;113790;-57
2021/03/28 05:05:33;;;;;;;;;;;;;;;18.78;41.81;101864.66;3094694;28;113849;-57
2021/03/28 05:07:14;;;;;;;;;;;;;;;18.76;41.89;101878.94;3087302;28;115110;-57
2021/03/28 05:08:55;;;;;;;;;;;;;;;18.76;41.82;101864.94;3087486;28;115075;-57
2021/03/28 05:10:26;;;;;;;;;;;;;;;18.79;41.81;101872.81;3087547;28;115183;-58
2021/03/28 05:12:00;;;;;;;;;;;;;;;18.80;41.67;101870.84;3111035;28;114533;-57
2021/03/28 05:13:41;;;;;;;;;;;;;;;18.79;41.73;101874.75;3101999;28;115162;-57
2021/03/28 05:15:23;;;;;;;;;;;;;;;18.77;41.73;101872.22;3088077;28;113960;-56
2021/03/28 05:17:04;;;;;;;;;;;;;;;18.77;41.67;101863.81;3086603;28;113954;-57
2021/03/28 05:18:44;;;;;;;;;;;;;;;18.79;41.63;101869.16;3086476;28;115548;-57
2021/03/28 05:20:16;;;;;;;;;;;;;;;18.77;41.66;101876.97;3087315;28;115937;-57
2021/03/28 05:21:57;;;;;;;;;;;;;;;18.76;41.81;101876.13;3087362;28;115744;-58
2021/03/28 05:23:40;;;;;;;;;;;;;;;18.75;41.89;101885.66;3089921;28;115564;-57
2021/03/28 05:25:21;;;;;;;;;;;;;;;18.72;42.39;101872.19;3093057;28;115202;-58
2021/03/28 05:26:55;;;;;;;;;;;;;;;18.73;41.98;101892.63;3082998;28;114060;-57
2021/03/28 05:28:36;;;;;;;;;;;;;;;18.72;42.27;101886.19;3089735;28;114046;-57
2021/03/28 05:30:10;;;;;;;;;;;;;;;18.74;42.24;101888.72;3094853;28;114667;-57
2021/03/28 05:31:55;;;;;;;;;;;;;;;18.71;41.99;101886.50;3097838;28;116252;-57
2021/03/28 05:33:29;;;;;;;;;;;;;;;18.72;41.93;101879.75;3096184;28;115969;-58
2021/03/28 05:35:10;;;;;;;;;;;;;;;18.70;41.95;101882.84;3094492;28;115702;-57
2021/03/28 05:36:51;;;;;;;;;;;;;;;18.67;42.09;101881.41;3080267;28;117878;-57
2021/03/28 05:38:22;;;;;;;;;;;;;;;18.70;42.18;101871.66;3075714;28;115434;-58
2021/03/28 05:40:03;;;;;;;;;;;;;;;18.70;42.12;101879.19;3122769;27;115893;-57
2021/03/28 05:41:49;;;;;;;;;;;;;;;18.66;42.29;101901.31;3086135;27;114446;-57
2021/03/28 05:43:22;;;;;;;;;;;;;;;18.66;42.03;101873.31;3086833;28;115700;-57
2021/03/28 05:44:54;;;;;;;;;;;;;;;18.65;42.09;101877.22;3091049;28;114736;-57
2021/03/28 05:46:25;;;;;;;;;;;;;;;18.65;42.14;101869.66;3084924;28;115661;-57
2021/03/28 05:47:59;;;;;;;;;;;;;;;18.65;42.22;101868.81;3085771;28;114748;-57
2021/03/28 05:49:40;;;;;;;;;;;;;;;18.63;42.33;101869.09;3080966;28;116418;-57
2021/03/28 05:51:20;;;;;;;;;;;;;;;18.62;42.18;101881.38;3080364;28;115722;-57
2021/03/28 05:52:52;;;;;;;;;;;;;;;18.61;42.31;101873.28;3083762;28;114863;-57
2021/03/28 05:54:33;;;;;;;;;;;;;;;18.63;42.15;101883.09;3109345;27;115147;-57
2021/03/28 05:56:14;;;;;;;;;;;;;;;18.61;42.18;101881.69;3091737;28;113939;-57
2021/03/28 05:57:55;;;;;;;;;;;;;;;18.59;42.32;101886.69;3087364;28;113887;-58
2021/03/28 05:59:35;;;;;;;;;;;;;;;18.59;42.35;101881.09;3088349;28;113765;-57
2021/03/28 06:01:15;;;;;;;;;;;;;;;18.57;42.29;101888.94;3087152;28;113964;-57
2021/03/28 06:02:46;;;;;;;;;;;;;;;18.60;42.03;101883.63;3086384;28;113841;-58
2021/03/28 06:04:18;;;;;;;;;;;;;;;18.60;42.45;101886.44;3091053;28;113967;-58
2021/03/28 06:05:59;;;;;;;;;;;;;;;18.60;42.49;101880.00;3086901;28;114051;-58
2021/03/28 06:07:33;;;;;;;;;;;;;;;18.61;42.60;101887.28;3084779;28;113987;-57
2021/03/28 06:09:04;;;;;;;;;;;;;;;18.58;42.38;101891.44;3086804;28;113962;-58
2021/03/28 06:10:45;;;;;;;;;;;;;;;18.58;42.43;101899.00;3083999;28;114486;-58
2021/03/28 06:12:26;;;;;;;;;;;;;;;18.60;42.47;101902.38;3093362;28;113765;-57
2021/03/28 06:13:58;;;;;;;;;;;;;;;18.57;42.33;101914.13;3086620;28;114153;-58
2021/03/28 06:15:30;;;;;;;;;;;;;;;18.55;42.11;101925.59;3089966;28;114247;-57
2021/03/28 06:17:02;;;;;;;;;;;;;;;18.56;42.49;101906.84;3110083;27;115479;-57
2021/03/28 06:18:36;;;;;;;;;;;;;;;18.56;42.35;101915.25;3096014;28;115267;-58
2021/03/28 06:20:17;;;;;;;;;;;;;;;18.55;42.21;101908.78;3087574;28;115464;-57
2021/03/28 06:21:58;;;;;;;;;;;;;;;18.53;42.43;101916.59;3111707;27;115510;-57
2021/03/28 06:23:38;;;;;;;;;;;;;;;18.54;42.25;101909.06;3088287;28;115126;-57
2021/03/28 06:25:20;;;;;;;;;;;;;;;18.53;42.33;101919.41;3086713;28;115317;-57
2021/03/28 06:26:54;;;;;;;;;;;;;;;18.53;42.54;101921.38;3084558;28;115589;-58
2021/03/28 06:28:35;;;;;;;;;;;;;;;18.51;42.67;101909.56;3085048;28;114410;-57
2021/03/28 06:30:16;;;;;;;;;;;;;;;18.52;42.47;101916.88;3087864;28;115439;-58
2021/03/28 06:31:51;;;;;;;;;;;;;;;18.56;42.44;101909.66;3093260;28;115120;-58
2021/03/28 06:33:26;;;;;;;;;;;;;;;18.56;42.70;101910.50;3092065;28;115844;-58
2021/03/28 06:34:57;;;;;;;;;;;;;;;18.59;42.73;101917.47;3093723;28;115300;-58
2021/03/28 06:36:38;;;;;;;;;;;;;;;18.63;42.79;101911.06;3094434;28;115387;-58
2021/03/28 06:38:19;;;;;;;;;;;;;;;18.69;43.00;101913.91;3099072;28;115039;-58
2021/03/28 06:39:51;;;;;;;;;;;;;;;18.72;42.93;101922.59;3118350;27;116084;-58
2021/03/28 06:41:32;;;;;;;;;;;;;;;18.77;42.81;101913.38;3102196;27;116083;-57
2021/03/28 06:43:09;;;;;;;;;;;;;;;18.80;42.99;101908.09;3093741;28;116101;-57
2021/03/28 06:44:49;;;;;;;;;;;;;;;18.84;42.78;101917.63;3086085;28;116543;-57
2021/03/28 06:46:29;;;;;;;;;;;;;;;18.88;42.75;101929.13;3093964;28;114657;-57
2021/03/28 06:48:14;;;;;;;;;;;;;;;18.90;42.67;101919.31;3092270;28;115653;-57
2021/03/28 06:49:56;;;;;;;;;;;;;;;18.96;42.88;101918.22;3109033;27;115026;-58
2021/03/28 06:51:27;;;;;;;;;;;;;;;19.01;42.89;101923.84;3087609;28;114911;-58
2021/03/28 06:53:08;;;;;;;;;;;;;;;19.06;42.93;101923.03;3086167;28;115998;-59
2021/03/28 06:54:40;;;;;;;;;;;;;;;19.12;42.99;101927.53;3086095;28;116034;-58
2021/03/28 06:56:11;;;;;;;;;;;;;;;19.18;43.02;101922.78;3097818;28;116379;-58
2021/03/28 06:57:59;;;;;;;;;;;;;;;19.23;43.13;101937.63;3088001;28;115972;-58
2021/03/28 06:59:40;;;;;;;;;;;;;;;19.30;42.81;101931.78;3096438;27;115207;-58
2021/03/28 07:01:21;;;;;;;;;;;;;;;19.35;42.76;101932.63;3095109;27;115845;-57
2021/03/28 07:02:52;;;;;;;;;;;;;;;19.42;42.70;101935.19;3108803;27;114083;-58
2021/03/28 07:04:33;;;;;;;;;;;;;;;19.46;42.72;101937.19;3095492;27;113933;-58
2021/03/28 07:06:13;;;;;;;;;;;;;;;19.51;42.43;101931.59;3085289;28;113687;-58
2021/03/28 07:07:54;;;;;;;;;;;;;;;19.58;42.30;101927.69;3109703;27;113654;-58
2021/03/28 07:09:28;;;;;;;;;;;;;;;19.64;42.23;101937.75;3075439;28;113888;-58
2021/03/28 07:10:59;;;;;;;;;;;;;;;19.69;42.12;101927.41;3082195;28;113957;-58
2021/03/28 07:12:40;;;;;;;;;;;;;;;19.75;41.90;101931.06;3086377;28;114845;-58
2021/03/28 07:14:20;;;;;;;;;;;;;;;19.81;41.91;101924.31;3084513;28;114160;-58
2021/03/28 07:16:00;;;;;;;;;;;;;;;19.86;41.89;101930.78;3085955;28;114037;-58
2021/03/28 07:17:40;;;;;;;;;;;;;;;19.92;42.01;101926.00;3086157;28;113975;-57
2021/03/28 07:19:21;;;;;;;;;;;;;;;19.98;41.66;101930.50;3110849;27;113782;-58
2021/03/28 07:20:59;;;;;;;;;;;;;;;20.03;41.60;101929.66;3090881;28;113763;-57
2021/03/28 07:22:30;;;;;;;;;;;;;;;20.10;41.44;101927.41;3108173;27;113876;-59
2021/03/28 07:24:01;;;;;;;;;;;;;;;20.14;41.60;101932.16;3093183;28;113694;-57
2021/03/28 07:25:42;;;;;;;;;;;;;;;20.17;41.27;101928.78;3100633;28;113951;-58
2021/03/28 07:27:22;;;;;;;;;;;;;;;20.20;41.48;101933.00;3075493;28;115560;-57
2021/03/28 07:28:56;;;;;;;;;;;;;;;20.24;41.31;101937.78;3110081;27;114257;-58
2021/03/28 07:30:37;;;;;;;;;;;;;;;20.29;41.22;101945.34;3093236;27;115181;-57
2021/03/28 07:32:17;;;;;;;;;;;;;;;20.33;41.23;101935.28;3094239;28;118041;-57
2021/03/28 07:33:57;;;;;;;;;;;;;;;20.38;41.39;101924.88;3090677;28;116561;-58
2021/03/28 07:35:33;;;;;;;;;;;;;;;20.44;41.21;101924.88;3095844;28;115632;-58
2021/03/28 07:37:14;;;;;;;;;;;;;;;20.46;40.87;101912.22;3086315;28;115264;-58
2021/03/28 07:38:54;;;;;;;;;;;;;;;20.52;40.85;101918.66;3084490;28;115426;-57
2021/03/28 07:40:29;;;;;;;;;;;;;;;20.56;41.12;101925.41;3085511;28;116046;-57
2021/03/28 07:42:10;;;;;;;;;;;;;;;20.60;40.91;101934.94;3085759;28;115249;-58
2021/03/28 07:43:51;;;;;;;;;;;;;;;20.65;40.50;101940.53;3085523;28;115130;-57
2021/03/28 07:45:30;;;;;;;;;;;;;;;20.70;40.79;101954.56;3085748;28;115167;-57
2021/03/28 07:47:11;;;;;;;;;;;;;;;20.73;40.63;101949.22;3105811;27;115226;-57
2021/03/28 07:48:42;;;;;;;;;;;;;;;20.77;40.50;101947.50;3094930;28;115792;-58
2021/03/28 07:50:23;;;;;;;;;;;;;;;20.80;40.31;101955.34;3084734;28;114092;-58
2021/03/28 07:52:03;;;;;;;;;;;;;;;20.84;40.02;101948.06;3091566;28;115736;-58
2021/03/28 07:53:44;;;;;;;;;;;;;;;20.88;40.42;101958.72;3098032;28;114385;-58
2021/03/28 07:55:25;;;;;;;;;;;;;;;20.91;40.10;101966.56;3093547;28;115867;-58
2021/03/28 07:57:08;;;;;;;;;;;;;;;20.94;40.12;101971.63;3108101;28;116036;-58
2021/03/28 07:58:42;;;;;;;;;;;;;;;20.97;40.13;101965.44;3091827;28;116249;-58
2021/03/28 08:00:17;;;;;;;;;;;;;;;20.99;39.85;101971.59;3084679;28;115757;-58
2021/03/28 08:01:54;;;;;;;;;;;;;;;21.01;40.02;101969.34;3084450;28;115748;-58
2021/03/28 08:03:35;;;;;;;;;;;;;;;21.03;39.78;101975.53;3106468;27;115611;-58
2021/03/28 08:05:07;;;;;;;;;;;;;;;21.05;39.91;101968.47;3088996;28;115754;-58
2021/03/28 08:06:42;;;;;;;;;;;;;;;21.07;39.90;101968.19;3086345;28;116526;-58
2021/03/28 08:08:23;;;;;;;;;;;;;;;21.06;39.48;101972.97;3086251;28;115743;-58
2021/03/28 08:10:04;;;;;;;;;;;;;;;21.09;39.49;101977.16;3094345;28;115844;-58
2021/03/28 08:11:44;;;;;;;;;;;;;;;21.09;39.56;101977.16;3091684;28;115818;-58
2021/03/28 08:13:25;;;;;;;;;;;;;;;21.11;39.58;101969.31;3084410;28;114040;-58
2021/03/28 08:14:56;;;;;;;;;;;;;;;21.11;39.75;101977.75;3085820;28;114398;-58